createdAt,value
2022-08-22T00:01:41.131Z,69.19
2022-08-22T00:02:53.347Z,58.37
2022-08-22T00:03:03.865Z,62.32
2022-08-22T00:03:06.692Z,70.35
2022-08-22T00:04:16.241Z,69.83
2022-08-22T00:06:51.870Z,69.47
2022-08-22T00:09:29.680Z,69.54
2022-08-22T00:12:09.348Z,69.70
2022-08-22T00:14:42.157Z,69.50
2022-08-22T00:17:45.486Z,69.71
2022-08-22T00:20:20.962Z,70.66
2022-08-22T00:22:59.750Z,72.31
2022-08-22T00:25:31.294Z,71.69
2022-08-22T00:28:02.881Z,71.45
2022-08-22T00:30:42.901Z,71.00
2022-08-22T00:33:18.758Z,71.21
2022-08-22T00:35:50.738Z,71.42
2022-08-22T00:38:22.761Z,71.34
2022-08-22T00:40:58.590Z,71.22
2022-08-22T00:44:01.312Z,71.12
2022-08-22T00:46:42.671Z,70.58
2022-08-22T00:49:18.972Z,70.55
2022-08-22T00:52:05.804Z,70.00
2022-08-22T00:54:50.343Z,69.82
2022-08-22T00:57:30.205Z,69.93
2022-08-22T01:00:16.787Z,69.63
2022-08-22T01:03:26.938Z,69.39
2022-08-22T01:06:08.308Z,69.19
2022-08-22T01:08:52.100Z,69.23
2022-08-22T01:11:29.312Z,69.15
2022-08-22T01:14:09.287Z,69.05
2022-08-22T01:16:58.661Z,69.15
2022-08-22T01:19:53.720Z,69.09
2022-08-22T01:22:50.450Z,69.04
2022-08-22T01:25:44.164Z,68.98
2022-08-22T01:28:40.255Z,69.05
2022-08-22T01:31:49.086Z,69.10
2022-08-22T01:34:44.622Z,69.25
2022-08-22T01:37:27.028Z,69.18
2022-08-22T01:40:27.222Z,69.15
2022-08-22T01:43:10.271Z,69.09
2022-08-22T01:46:07.956Z,69.13
2022-08-22T01:48:41.257Z,69.30
2022-08-22T01:51:19.400Z,69.21
2022-08-22T01:53:54.759Z,69.06
2022-08-22T01:56:24.368Z,69.14
2022-08-22T01:58:57.749Z,69.23
2022-08-22T02:01:39.683Z,69.49
2022-08-22T02:04:14.346Z,70.19
2022-08-22T02:06:48.615Z,70.42
2022-08-22T02:09:37.623Z,70.38
2022-08-22T02:12:22.233Z,71.34
2022-08-22T02:14:56.076Z,70.86
2022-08-22T02:17:27.482Z,70.63
2022-08-22T02:19:59.578Z,70.63
2022-08-22T02:22:35.274Z,70.29
2022-08-22T02:25:09.826Z,70.62
2022-08-22T02:27:50.882Z,70.75
2022-08-22T02:30:21.387Z,71.05
2022-08-22T02:32:58.450Z,71.33
2022-08-22T02:35:31.447Z,70.96
2022-08-22T02:38:08.515Z,70.83
2022-08-22T02:40:39.252Z,70.86
2022-08-22T02:43:14.367Z,71.50
2022-08-22T02:45:45.735Z,71.00
2022-08-22T02:48:20.675Z,70.89
2022-08-22T02:50:53.058Z,71.04
2022-08-22T02:53:25.428Z,70.91
2022-08-22T02:55:58.225Z,71.13
2022-08-22T02:58:31.496Z,71.50
2022-08-22T03:01:35.317Z,71.29
2022-08-22T03:04:25.367Z,71.38
2022-08-22T03:07:08.126Z,71.20
2022-08-22T03:09:41.251Z,70.94
2022-08-22T03:12:17.131Z,71.07
2022-08-22T03:14:50.884Z,71.18
2022-08-22T03:17:25.214Z,71.18
2022-08-22T03:19:57.501Z,70.91
2022-08-22T03:22:33.640Z,70.89
2022-08-22T03:25:08.717Z,71.15
2022-08-22T03:27:41.346Z,71.35
2022-08-22T03:30:17.971Z,71.30
2022-08-22T03:32:52.716Z,71.24
2022-08-22T03:35:28.517Z,71.37
2022-08-22T03:38:09.580Z,71.42
2022-08-22T03:40:51.165Z,71.50
2022-08-22T03:43:32.245Z,71.95
2022-08-22T03:46:18.367Z,71.97
2022-08-22T03:49:07.169Z,72.10
2022-08-22T03:51:44.001Z,72.11
2022-08-22T03:54:33.044Z,72.25
2022-08-22T03:57:31.165Z,72.09
2022-08-22T04:00:23.081Z,71.90
2022-08-22T04:03:13.219Z,71.83
2022-08-22T04:06:07.863Z,71.96
2022-08-22T04:09:05.248Z,72.17
2022-08-22T04:11:54.388Z,72.10
2022-08-22T04:14:39.988Z,72.02
2022-08-22T04:17:24.888Z,72.36
2022-08-22T04:20:24.940Z,72.24
2022-08-22T04:23:16.065Z,72.92
2022-08-22T04:25:45.423Z,72.87
2022-08-22T04:28:18.553Z,72.81
2022-08-22T04:30:53.206Z,72.94
2022-08-22T04:33:25.486Z,72.83
2022-08-22T04:36:01.417Z,72.74
2022-08-22T04:38:32.610Z,72.62
2022-08-22T04:41:05.014Z,72.62
2022-08-22T04:43:47.766Z,72.59
2022-08-22T04:46:21.089Z,72.43
2022-08-22T04:48:52.746Z,72.31
2022-08-22T04:51:21.989Z,72.50
2022-08-22T04:54:06.134Z,72.36
2022-08-22T04:56:40.249Z,72.54
2022-08-22T04:59:11.840Z,72.50
2022-08-22T05:01:43.893Z,72.17
2022-08-22T05:04:14.020Z,72.24
2022-08-22T05:06:45.528Z,72.20
2022-08-22T05:09:16.780Z,72.00
2022-08-22T05:11:46.744Z,71.92
2022-08-22T05:14:18.083Z,71.38
2022-08-22T05:16:50.070Z,71.24
2022-08-22T05:19:27.056Z,71.27
2022-08-22T05:21:58.026Z,70.98
2022-08-22T05:24:28.871Z,70.86
2022-08-22T05:26:58.710Z,70.77
2022-08-22T05:29:31.951Z,70.61
2022-08-22T05:32:04.360Z,70.40
2022-08-22T05:34:34.328Z,70.70
2022-08-22T05:37:14.416Z,70.75
2022-08-22T05:39:47.303Z,70.88
2022-08-22T05:42:17.679Z,70.33
2022-08-22T05:44:45.928Z,70.19
2022-08-22T05:47:22.335Z,69.75
2022-08-22T05:49:56.761Z,69.40
2022-08-22T05:52:34.955Z,69.09
2022-08-22T05:55:05.836Z,68.75
2022-08-22T05:57:37.048Z,68.57
2022-08-22T06:00:11.003Z,68.76
2022-08-22T06:02:57.775Z,68.99
2022-08-22T06:05:27.758Z,69.02
2022-08-22T06:07:59.806Z,68.74
2022-08-22T06:10:32.009Z,68.83
2022-08-22T06:13:03.157Z,68.63
2022-08-22T06:15:36.191Z,68.84
2022-08-22T06:18:07.742Z,68.85
2022-08-22T06:20:36.271Z,68.55
2022-08-22T06:23:04.659Z,68.22
2022-08-22T06:25:34.232Z,67.90
2022-08-22T06:28:05.598Z,67.81
2022-08-22T06:30:35.188Z,67.34
2022-08-22T06:33:12.374Z,67.29
2022-08-22T06:36:00.828Z,66.71
2022-08-22T06:38:33.679Z,66.17
2022-08-22T06:41:03.580Z,66.25
2022-08-22T06:43:37.717Z,65.79
2022-08-22T06:46:07.040Z,64.87
2022-08-22T06:48:37.119Z,64.86
2022-08-22T06:51:08.414Z,64.45
2022-08-22T06:53:45.920Z,64.28
2022-08-22T06:56:20.562Z,63.70
2022-08-22T06:58:50.051Z,63.01
2022-08-22T07:01:22.780Z,62.96
2022-08-22T07:03:54.649Z,62.36
2022-08-22T07:06:37.762Z,61.64
2022-08-22T07:09:07.066Z,61.87
2022-08-22T07:11:39.689Z,61.71
2022-08-22T07:14:11.512Z,61.25
2022-08-22T07:16:43.957Z,61.31
2022-08-22T07:19:24.531Z,61.92
2022-08-22T07:21:54.563Z,61.52
2022-08-22T07:24:26.998Z,61.17
2022-08-22T07:27:05.971Z,60.41
2022-08-22T07:29:49.016Z,59.48
2022-08-22T07:32:20.918Z,58.83
2022-08-22T07:35:06.159Z,58.44
2022-08-22T07:37:44.998Z,58.43
2022-08-22T07:40:20.067Z,57.12
2022-08-22T07:42:51.019Z,57.76
2022-08-22T07:45:21.951Z,56.56
2022-08-22T07:48:03.235Z,56.58
2022-08-22T07:50:37.341Z,56.96
2022-08-22T07:53:09.839Z,57.67
2022-08-22T07:55:48.492Z,58.40
2022-08-22T07:58:17.835Z,58.61
2022-08-22T08:00:46.944Z,58.68
2022-08-22T08:03:14.880Z,58.74
2022-08-22T08:05:45.621Z,58.49
2022-08-22T08:08:22.636Z,58.92
2022-08-22T08:10:52.034Z,58.78
2022-08-22T08:13:23.165Z,58.89
2022-08-22T08:15:51.444Z,59.02
2022-08-22T08:18:23.399Z,58.67
2022-08-22T08:20:56.127Z,58.99
2022-08-22T08:23:25.145Z,58.64
2022-08-22T08:26:04.336Z,59.04
2022-08-22T08:28:34.179Z,58.14
2022-08-22T08:31:08.852Z,57.04
2022-08-22T08:33:39.302Z,56.96
2022-08-22T08:36:33.105Z,57.14
2022-08-22T08:39:12.634Z,56.82
2022-08-22T08:42:11.014Z,56.23
2022-08-22T08:45:04.943Z,56.39
2022-08-22T08:47:41.318Z,55.99
2022-08-22T08:50:25.432Z,56.42
2022-08-22T08:53:18.013Z,55.40
2022-08-22T08:55:51.192Z,55.06
2022-08-22T08:58:34.872Z,54.73
2022-08-22T09:01:14.091Z,55.03
2022-08-22T09:04:15.333Z,54.97
2022-08-22T09:07:06.998Z,55.27
2022-08-22T09:09:46.332Z,54.32
2022-08-22T09:12:59.774Z,53.54
2022-08-22T09:15:58.417Z,53.23
2022-08-22T09:19:02.871Z,53.32
2022-08-22T09:22:02.014Z,52.63
2022-08-22T09:24:52.424Z,53.62
2022-08-22T09:27:31.372Z,53.64
2022-08-22T09:30:05.974Z,53.07
2022-08-22T09:32:44.547Z,53.39
2022-08-22T09:35:22.369Z,53.54
2022-08-22T09:38:00.953Z,53.50
2022-08-22T09:40:32.883Z,53.56
2022-08-22T09:43:06.186Z,54.53
2022-08-22T09:45:54.561Z,53.54
2022-08-22T09:48:35.644Z,53.73
2022-08-22T09:51:31.206Z,53.95
2022-08-22T09:54:12.180Z,53.83
2022-08-22T09:56:49.536Z,53.92
2022-08-22T09:59:23.758Z,53.24
2022-08-22T10:01:56.395Z,53.07
2022-08-22T10:04:42.029Z,52.75
2022-08-22T10:07:26.266Z,52.39
2022-08-22T10:10:00.104Z,52.95
2022-08-22T10:12:35.749Z,53.04
2022-08-22T10:15:17.454Z,52.56
2022-08-22T10:17:59.207Z,51.28
2022-08-22T10:20:31.549Z,52.00
2022-08-22T10:23:10.940Z,51.67
2022-08-22T10:25:42.265Z,51.10
2022-08-22T10:28:20.301Z,50.96
2022-08-22T10:30:56.991Z,50.55
2022-08-22T10:33:29.073Z,50.79
2022-08-22T10:36:05.062Z,50.36
2022-08-22T10:38:43.896Z,49.69
2022-08-22T10:41:15.745Z,48.77
2022-08-22T10:44:00.828Z,49.06
2022-08-22T10:46:37.641Z,47.54
2022-08-22T10:49:09.792Z,48.57
2022-08-22T10:51:45.142Z,48.98
2022-08-22T10:54:36.773Z,48.01
2022-08-22T10:57:22.633Z,48.48
2022-08-22T10:59:58.814Z,48.53
2022-08-22T11:02:42.437Z,48.03
2022-08-22T11:05:41.593Z,48.84
2022-08-22T11:08:28.691Z,48.67
2022-08-22T11:11:06.500Z,48.13
2022-08-22T11:13:43.391Z,48.24
2022-08-22T11:16:23.208Z,48.21
2022-08-22T11:19:15.971Z,47.76
2022-08-22T11:22:14.439Z,47.64
2022-08-22T11:25:30.991Z,48.93
2022-08-22T11:28:34.255Z,48.52
2022-08-22T11:31:07.579Z,48.78
2022-08-22T11:33:47.292Z,48.33
2022-08-22T11:36:33.890Z,48.78
2022-08-22T11:39:13.706Z,48.78
2022-08-22T11:41:52.907Z,48.35
2022-08-22T11:44:25.697Z,47.69
2022-08-22T11:46:58.129Z,47.93
2022-08-22T11:49:47.045Z,47.72
2022-08-22T11:52:25.456Z,47.43
2022-08-22T11:55:13.784Z,48.02
2022-08-22T11:57:44.962Z,47.36
2022-08-22T12:00:28.894Z,47.12
2022-08-22T12:03:19.719Z,47.46
2022-08-22T12:05:56.545Z,46.34
2022-08-22T12:09:04.771Z,46.59
2022-08-22T12:11:39.956Z,46.97
2022-08-22T12:14:18.718Z,47.62
2022-08-22T12:16:57.078Z,47.75
2022-08-22T12:19:32.630Z,47.34
2022-08-22T12:22:49.974Z,46.12
2022-08-22T12:25:32.460Z,46.57
2022-08-22T12:28:15.916Z,46.34
2022-08-22T12:30:54.757Z,46.98
2022-08-22T12:34:34.391Z,47.40
2022-08-22T12:37:10.152Z,47.07
2022-08-22T12:40:26.354Z,47.19
2022-08-22T12:43:07.168Z,47.29
2022-08-22T12:45:46.939Z,47.67
2022-08-22T12:48:31.329Z,48.26
2022-08-22T12:51:17.635Z,48.17
2022-08-22T12:54:01.700Z,48.69
2022-08-22T12:56:36.977Z,49.54
2022-08-22T12:59:23.871Z,49.19
2022-08-22T13:01:53.727Z,48.99
2022-08-22T13:04:32.594Z,48.85
2022-08-22T13:07:10.202Z,48.92
2022-08-22T13:09:40.065Z,48.60
2022-08-22T13:12:21.181Z,49.16
2022-08-22T13:14:56.924Z,49.24
2022-08-22T13:17:25.742Z,48.72
2022-08-22T13:20:05.486Z,48.59
2022-08-22T13:22:37.125Z,48.38
2022-08-22T13:25:08.951Z,48.41
2022-08-22T13:28:03.417Z,48.29
2022-08-22T13:30:33.606Z,47.70
2022-08-22T13:33:09.774Z,47.67
2022-08-22T13:35:44.530Z,47.71
2022-08-22T13:38:25.981Z,47.21
2022-08-22T13:40:56.705Z,46.96
2022-08-22T13:43:27.317Z,46.89
2022-08-22T13:46:02.076Z,47.07
2022-08-22T13:48:47.595Z,46.93
2022-08-22T13:51:22.442Z,47.45
2022-08-22T13:54:00.613Z,47.69
2022-08-22T13:56:34.039Z,47.47
2022-08-22T13:59:05.603Z,48.30
2022-08-22T14:01:39.520Z,47.90
2022-08-22T14:04:28.357Z,48.57
2022-08-22T14:07:19.470Z,48.14
2022-08-22T14:09:56.052Z,48.23
2022-08-22T14:12:33.347Z,48.30
2022-08-22T14:15:24.526Z,48.49
2022-08-22T14:17:58.015Z,48.08
2022-08-22T14:20:33.640Z,48.32
2022-08-22T14:23:04.372Z,48.24
2022-08-22T14:25:36.742Z,48.06
2022-08-22T14:28:09.198Z,48.01
2022-08-22T14:30:40.747Z,48.36
2022-08-22T14:33:13.103Z,48.55
2022-08-22T14:35:44.072Z,49.00
2022-08-22T14:38:29.974Z,49.50
2022-08-22T14:41:03.300Z,48.81
2022-08-22T14:43:47.355Z,49.19
2022-08-22T14:46:21.090Z,49.37
2022-08-22T14:49:28.877Z,49.49
2022-08-22T14:52:04.506Z,49.86
2022-08-22T14:54:34.814Z,49.45
2022-08-22T14:57:10.346Z,49.70
2022-08-22T14:59:50.324Z,50.04
2022-08-22T15:02:25.804Z,49.64
2022-08-22T15:04:54.995Z,50.05
2022-08-22T15:07:26.787Z,50.01
2022-08-22T15:09:58.323Z,50.00
2022-08-22T15:12:29.430Z,50.18
2022-08-22T15:14:59.356Z,50.12
2022-08-22T15:17:44.177Z,50.10
2022-08-22T15:20:28.054Z,49.99
2022-08-22T15:23:00.593Z,49.91
2022-08-22T15:25:31.607Z,50.31
2022-08-22T15:28:05.189Z,50.62
2022-08-22T15:30:44.257Z,50.36
2022-08-22T15:33:16.408Z,50.24
2022-08-22T15:35:45.343Z,50.35
2022-08-22T15:38:30.816Z,50.67
2022-08-22T15:41:31.083Z,50.65
2022-08-22T15:44:06.043Z,50.74
2022-08-22T15:46:37.804Z,50.62
2022-08-22T15:49:07.544Z,50.51
2022-08-22T15:51:43.000Z,50.61
2022-08-22T15:54:24.498Z,50.67
2022-08-22T15:57:40.211Z,50.26
2022-08-22T16:00:28.005Z,50.27
2022-08-22T16:02:59.510Z,50.57
2022-08-22T16:05:33.544Z,50.36
2022-08-22T16:08:04.763Z,50.79
2022-08-22T16:10:36.347Z,50.67
2022-08-22T16:13:29.496Z,50.53
2022-08-22T16:16:02.506Z,50.66
2022-08-22T16:19:08.549Z,50.77
2022-08-22T16:22:15.814Z,50.62
2022-08-22T16:25:05.392Z,50.96
2022-08-22T16:27:35.105Z,51.10
2022-08-22T16:30:14.703Z,51.20
2022-08-22T16:32:57.442Z,51.17
2022-08-22T16:36:02.487Z,51.39
2022-08-22T16:38:38.052Z,51.76
2022-08-22T16:41:06.480Z,51.84
2022-08-22T16:43:35.657Z,51.68
2022-08-22T16:46:28.131Z,51.82
2022-08-22T16:49:02.658Z,52.17
2022-08-22T16:51:30.420Z,52.25
2022-08-22T16:54:33.727Z,52.63
2022-08-22T16:57:09.127Z,53.02
2022-08-22T16:59:57.268Z,53.00
2022-08-22T17:02:52.417Z,53.24
2022-08-22T17:05:29.368Z,53.39
2022-08-22T17:08:08.051Z,53.51
2022-08-22T17:10:43.366Z,53.80
2022-08-22T17:13:20.505Z,53.67
2022-08-22T17:16:06.623Z,53.81
2022-08-22T17:18:46.266Z,54.07
2022-08-22T17:21:19.034Z,54.06
2022-08-22T17:23:55.652Z,54.12
2022-08-22T17:26:37.559Z,54.47
2022-08-22T17:29:16.764Z,54.30
2022-08-22T17:31:50.798Z,54.53
2022-08-22T17:34:38.053Z,54.71
2022-08-22T17:37:11.604Z,55.04
2022-08-22T17:39:56.570Z,55.77
2022-08-22T17:42:38.737Z,56.13
2022-08-22T17:48:17.372Z,57.20
2022-08-22T17:50:48.147Z,57.10
2022-08-22T17:53:28.493Z,57.29
2022-08-22T17:56:09.371Z,57.65
2022-08-22T17:58:44.238Z,57.53
2022-08-22T18:01:16.714Z,57.98
2022-08-22T18:04:11.636Z,57.79
2022-08-22T18:06:47.769Z,57.86
2022-08-22T18:09:31.241Z,57.85
2022-08-22T18:12:04.326Z,58.19
2022-08-22T18:14:35.803Z,57.98
2022-08-22T18:17:19.908Z,57.84
2022-08-22T18:19:56.461Z,57.79
2022-08-22T18:22:28.280Z,57.70
2022-08-22T18:24:59.306Z,57.87
2022-08-22T18:27:35.912Z,58.40
2022-08-22T18:30:17.953Z,58.02
2022-08-22T18:32:53.386Z,58.41
2022-08-22T18:35:30.048Z,58.52
2022-08-22T18:38:19.160Z,58.68
2022-08-22T18:40:52.517Z,58.45
2022-08-22T18:43:24.423Z,59.03
2022-08-22T18:46:03.785Z,58.96
2022-08-22T18:48:59.232Z,59.39
2022-08-22T18:51:34.872Z,60.18
2022-08-22T18:54:41.647Z,59.82
2022-08-22T18:57:30.566Z,59.84
2022-08-22T19:00:09.602Z,59.83
2022-08-22T19:03:08.889Z,59.94
2022-08-22T19:05:54.144Z,59.99
2022-08-22T19:08:44.962Z,60.33
2022-08-22T19:11:26.152Z,60.41
2022-08-22T19:14:08.856Z,60.73
2022-08-22T19:16:57.631Z,60.90
2022-08-22T19:19:53.987Z,61.18
2022-08-22T19:22:26.369Z,61.32
2022-08-22T19:25:15.698Z,61.21
2022-08-22T19:27:47.833Z,61.25
2022-08-22T19:30:41.441Z,61.18
2022-08-22T19:33:12.655Z,61.32
2022-08-22T19:35:48.662Z,61.23
2022-08-22T19:38:59.063Z,61.58
2022-08-22T19:41:46.166Z,61.65
2022-08-22T19:44:36.196Z,61.87
2022-08-22T19:47:09.212Z,61.90
2022-08-22T19:49:40.272Z,62.31
2022-08-22T19:52:22.315Z,62.27
2022-08-22T19:54:57.812Z,62.48
2022-08-22T19:57:37.496Z,62.76
2022-08-22T20:00:18.514Z,62.85
2022-08-22T20:02:57.373Z,63.02
2022-08-22T20:05:34.121Z,62.86
2022-08-22T20:08:25.493Z,63.02
2022-08-22T20:11:03.019Z,62.97
2022-08-22T20:13:34.517Z,63.15
2022-08-22T20:16:05.418Z,63.00
2022-08-22T20:19:06.394Z,62.84
2022-08-22T20:21:51.576Z,63.07
2022-08-22T20:24:23.407Z,63.38
2022-08-22T20:27:12.938Z,63.03
2022-08-22T20:29:49.093Z,63.21
2022-08-22T20:32:19.624Z,63.49
2022-08-22T20:34:48.586Z,64.27
2022-08-22T20:40:55.463Z,64.24
2022-08-22T20:43:18.513Z,64.11
2022-08-22T20:45:54.894Z,64.32
2022-08-22T20:48:22.622Z,64.37
2022-08-22T20:50:50.463Z,64.35
2022-08-22T20:53:21.599Z,64.27
2022-08-22T20:55:53.935Z,64.46
2022-08-22T20:58:25.077Z,64.45
2022-08-22T21:01:00.112Z,64.36
2022-08-22T21:03:37.268Z,64.41
2022-08-22T21:06:13.261Z,64.31
2022-08-22T21:08:41.890Z,64.42
2022-08-22T21:11:30.282Z,64.08
2022-08-22T21:13:59.300Z,64.20
2022-08-22T21:16:33.106Z,64.31
2022-08-22T21:19:01.987Z,64.15
2022-08-22T21:21:31.912Z,64.40
2022-08-22T21:24:02.063Z,64.39
2022-08-22T21:26:31.661Z,64.52
2022-08-22T21:29:02.731Z,64.74
2022-08-22T21:31:34.393Z,64.67
2022-08-22T21:34:02.580Z,64.84
2022-08-22T21:36:32.303Z,65.11
2022-08-22T21:39:04.269Z,65.24
2022-08-22T21:41:34.710Z,65.22
2022-08-22T21:44:19.305Z,65.26
2022-08-22T21:46:48.423Z,65.47
2022-08-22T21:49:22.464Z,65.78
2022-08-22T21:51:51.468Z,65.80
2022-08-22T21:54:41.373Z,65.93
2022-08-22T21:57:17.786Z,65.85
2022-08-22T21:59:51.763Z,66.14
2022-08-22T22:02:34.214Z,66.10
2022-08-22T22:05:08.567Z,65.91
2022-08-22T22:07:37.958Z,66.02
2022-08-22T22:10:08.262Z,66.09
2022-08-22T22:12:36.298Z,66.24
2022-08-22T22:15:04.368Z,66.16
2022-08-22T22:17:33.509Z,66.35
2022-08-22T22:20:01.308Z,66.96
2022-08-22T22:22:29.058Z,66.99
2022-08-22T22:24:56.805Z,67.24
2022-08-22T22:27:24.526Z,67.63
2022-08-22T22:29:52.379Z,68.11
2022-08-22T22:32:20.209Z,68.18
2022-08-22T22:34:49.383Z,68.58
2022-08-22T22:37:17.195Z,68.23
2022-08-22T22:39:45.226Z,68.44
2022-08-22T22:42:13.402Z,68.25
2022-08-22T22:44:41.091Z,68.50
2022-08-22T22:47:15.192Z,69.44
2022-08-22T22:49:44.729Z,69.28
2022-08-22T22:52:13.859Z,69.19
2022-08-22T22:54:41.586Z,69.31
2022-08-22T22:57:13.388Z,70.56
2022-08-22T22:59:43.996Z,73.73
2022-08-22T23:02:15.280Z,73.70
2022-08-22T23:04:45.057Z,72.91
2022-08-22T23:07:16.080Z,73.08
2022-08-22T23:09:44.519Z,73.04
2022-08-22T23:12:13.910Z,73.23
2022-08-22T23:14:42.091Z,73.74
2022-08-22T23:17:09.894Z,74.19
2022-08-22T23:19:38.818Z,75.82
2022-08-22T23:22:07.865Z,78.18
2022-08-22T23:24:38.226Z,78.51
2022-08-22T23:27:07.140Z,77.65
2022-08-22T23:29:37.199Z,77.19
2022-08-22T23:32:05.881Z,77.13
2022-08-22T23:34:35.847Z,76.73
2022-08-22T23:37:06.418Z,76.73
2022-08-22T23:39:38.096Z,76.85
2022-08-22T23:42:07.777Z,77.30
2022-08-22T23:44:37.339Z,77.25
2022-08-22T23:47:06.247Z,77.27
2022-08-22T23:49:34.770Z,77.38
2022-08-22T23:52:03.318Z,76.97
2022-08-22T23:54:31.146Z,77.02
2022-08-22T23:57:02.510Z,77.22
2022-08-22T23:59:33.964Z,77.23
